Darlington, Wisconsin
Current Conditions -  °F | °C
As of 8:10 PM on Sunday 25 Jan 2015 (Local Time) from KMRJ Reporting Station
Overcast Overcast  
Wind Chill: 18°   Ceiling: 11000
Heat Index: 18°   Visibility: 10mi
Dew Point: 12°   Wind: 3mph
Humidity: 79%   Direction: 340°NNW
Pressure: 30.04"   Gusts: NA
Location:  42.68°N, 90.12°W
Report Text: KMRJ 260210Z AUTO 34003KT 10SM OVC110 M08/M11 A3004 RMK AO2
Loading
Personal Weather Stations






























Interactive Weather Map New forecast layout! Learn more

10-Day Weather Forecast

Advertisements
Track Severe Weather on mobile